Terminal Aerodrome Forecast
Issued by NWS

Home | Current Version | Previous Version | Text Only | Print | Product List | Glossary On
Versions: 1 2 3 4 5 6 7 8 9 10 11 12 13 14 15
000
FTUS44 KLZK 290500
TAFPBF
TAF
KPBF 290538Z 2906/3006 VRB02KT P6SM FEW060 FEW100
     FM290900 16002KT P6SM VCTS SCT050CB BKN100
     FM291300 18008KT P6SM SCT050 SCT100
     FM300100 16004KT P6SM SCT050 BKN100=

USA.gov is the U.S. government's official web portal to all federal, state and local government web resources and services.